Time;durP1;ratioP1;P1;durP2;ratioP2;P2;SDS_P1;SDS_P2;PMS_P1;PMS_P2;Temp;Humidity;BMP_temperature;BMP_pressure;BME280_temperature;BME280_humidity;BME280_pressure;Samples;Min_cycle;Max_cycle;Signal;HPM_P1;HPM_P2
2022/06/20 00:00:52;;;;;;;5.50;4.53;;;;;;;;;;2075025;28;20169;-53
2022/06/20 00:01:52;;;;;;;5.38;4.88;;;;;;;;;;2074413;28;20173;-52
2022/06/20 00:02:56;;;;;;;6.13;4.80;;;;;;;;;;2075040;28;20686;-53
2022/06/20 00:03:57;;;;;;;5.00;4.57;;;;;;;;;;2073879;28;20197;-56
2022/06/20 00:04:59;;;;;;;6.78;4.80;;;;;;;;;;2073629;28;20204;-57
2022/06/20 00:05:59;;;;;;;5.60;5.10;;;;;;;;;;2074260;28;20169;-58
2022/06/20 00:07:00;;;;;;;5.78;4.45;;;;;;;;;;2066255;28;20739;-55
2022/06/20 00:08:00;;;;;;;5.80;4.80;;;;;;;;;;2057997;28;20170;-58
2022/06/20 00:09:01;;;;;;;5.00;4.50;;;;;;;;;;2074024;28;20231;-55
2022/06/20 00:10:01;;;;;;;6.63;4.97;;;;;;;;;;2074791;28;20177;-54
2022/06/20 00:11:01;;;;;;;6.03;5.35;;;;;;;;;;2073629;28;20167;-54
2022/06/20 00:12:02;;;;;;;5.00;4.47;;;;;;;;;;2073308;28;20199;-55
2022/06/20 00:13:02;;;;;;;6.88;4.88;;;;;;;;;;2074455;28;20626;-59
2022/06/20 00:14:03;;;;;;;8.88;5.45;;;;;;;;;;2073340;28;20673;-61
2022/06/20 00:15:04;;;;;;;7.07;6.13;;;;;;;;;;2074386;28;20169;-54
2022/06/20 00:16:05;;;;;;;6.75;5.93;;;;;;;;;;2073877;28;20212;-55
2022/06/20 00:17:09;;;;;;;5.63;5.13;;;;;;;;;;2073773;28;20169;-53
2022/06/20 00:18:10;;;;;;;5.50;5.03;;;;;;;;;;2073243;28;20191;-51
2022/06/20 00:19:10;;;;;;;5.65;5.15;;;;;;;;;;2073180;28;20677;-58
2022/06/20 00:20:12;;;;;;;5.40;5.00;;;;;;;;;;2072734;28;20176;-56
2022/06/20 00:21:15;;;;;;;6.13;4.68;;;;;;;;;;2073944;28;20173;-51
2022/06/20 00:22:15;;;;;;;8.07;5.97;;;;;;;;;;2072963;28;20234;-55
2022/06/20 00:23:15;;;;;;;5.93;5.25;;;;;;;;;;2073187;28;20169;-51
2022/06/20 00:24:16;;;;;;;5.53;5.05;;;;;;;;;;2072383;28;20234;-52
2022/06/20 00:25:16;;;;;;;6.40;5.25;;;;;;;;;;2073658;28;20197;-57
2022/06/20 00:26:17;;;;;;;6.22;5.50;;;;;;;;;;2073534;28;20181;-58
2022/06/20 00:27:18;;;;;;;8.63;6.35;;;;;;;;;;2073685;28;20161;-54
2022/06/20 00:28:18;;;;;;;5.40;4.88;;;;;;;;;;2073256;28;20196;-58
2022/06/20 00:29:18;;;;;;;5.82;5.25;;;;;;;;;;2073480;28;20247;-52
2022/06/20 00:30:19;;;;;;;6.93;5.25;;;;;;;;;;2072968;28;20239;-56
2022/06/20 00:31:19;;;;;;;10.27;5.72;;;;;;;;;;2073218;28;20252;-53
2022/06/20 00:32:20;;;;;;;6.55;5.20;;;;;;;;;;2073678;28;20638;-58
2022/06/20 00:33:20;;;;;;;5.85;5.35;;;;;;;;;;2072288;28;20273;-55
2022/06/20 00:34:20;;;;;;;5.38;4.90;;;;;;;;;;2078608;23;20667;-52
2022/06/20 00:35:21;;;;;;;5.85;5.25;;;;;;;;;;2071843;28;20212;-57
2022/06/20 00:36:21;;;;;;;6.30;5.00;;;;;;;;;;2072056;28;20544;-56
2022/06/20 00:37:22;;;;;;;7.38;5.60;;;;;;;;;;2073705;28;20199;-52
2022/06/20 00:38:22;;;;;;;9.57;5.15;;;;;;;;;;2075342;28;20677;-51
2022/06/20 00:39:23;;;;;;;6.47;5.13;;;;;;;;;;2074246;28;20698;-54
2022/06/20 00:40:27;;;;;;;7.10;4.70;;;;;;;;;;2074992;28;21499;-57
2022/06/20 00:41:29;;;;;;;6.70;5.40;;;;;;;;;;2075352;28;20245;-55
2022/06/20 00:42:30;;;;;;;6.47;5.20;;;;;;;;;;2075200;28;20201;-56
2022/06/20 00:43:32;;;;;;;6.03;5.20;;;;;;;;;;2075707;28;20181;-55
2022/06/20 00:44:34;;;;;;;5.45;4.95;;;;;;;;;;2074689;28;20266;-53
2022/06/20 00:45:38;;;;;;;6.50;5.60;;;;;;;;;;2074848;28;20215;-56
2022/06/20 00:46:46;;;;;;;5.93;5.00;;;;;;;;;;2067088;28;20193;-54
2022/06/20 00:47:47;;;;;;;5.90;5.30;;;;;;;;;;2074950;28;20661;-51
2022/06/20 00:48:59;;;;;;;7.60;5.25;;;;;;;;;;2076078;28;20255;-58
2022/06/20 00:50:02;;;;;;;6.65;5.40;;;;;;;;;;2075385;28;20161;-52
2022/06/20 00:51:08;;;;;;;5.55;4.70;;;;;;;;;;2076157;28;20634;-54
2022/06/20 00:52:21;;;;;;;9.18;5.25;;;;;;;;;;2074583;28;20172;-54
2022/06/20 00:53:26;;;;;;;5.55;4.72;;;;;;;;;;2074917;28;20188;-58
2022/06/20 00:54:37;;;;;;;6.25;4.80;;;;;;;;;;2074277;28;20193;-51
2022/06/20 00:55:42;;;;;;;6.38;5.00;;;;;;;;;;2075503;28;20169;-52
2022/06/20 00:56:50;;;;;;;5.53;4.60;;;;;;;;;;2076185;28;20737;-55
2022/06/20 00:58:00;;;;;;;5.18;4.70;;;;;;;;;;2075429;28;20192;-51
2022/06/20 00:59:03;;;;;;;6.63;5.00;;;;;;;;;;2076027;28;20173;-54
2022/06/20 01:00:16;;;;;;;6.03;4.75;;;;;;;;;;2076325;28;20219;-54
2022/06/20 01:01:17;;;;;;;5.68;4.53;;;;;;;;;;2075540;28;20196;-56
2022/06/20 01:02:26;;;;;;;9.00;5.10;;;;;;;;;;2075784;28;20170;-55
2022/06/20 01:03:28;;;;;;;8.10;4.40;;;;;;;;;;2076299;28;20718;-57
2022/06/20 01:04:35;;;;;;;7.25;4.47;;;;;;;;;;2075300;28;20201;-59
2022/06/20 01:05:38;;;;;;;5.00;4.18;;;;;;;;;;2076452;28;20203;-57
2022/06/20 01:06:43;;;;;;;7.93;4.50;;;;;;;;;;2075757;28;20204;-52
2022/06/20 01:08:02;;;;;;;6.40;4.40;;;;;;;;;;2076200;28;20248;-52
2022/06/20 01:09:07;;;;;;;9.10;4.47;;;;;;;;;;2073798;28;20271;-50
2022/06/20 01:10:09;;;;;;;7.35;4.53;;;;;;;;;;2075764;28;20537;-49
2022/06/20 01:11:16;;;;;;;7.20;4.15;;;;;;;;;;2075794;28;20185;-54
2022/06/20 01:12:19;;;;;;;6.68;4.45;;;;;;;;;;2075527;28;20161;-57
2022/06/20 01:13:20;;;;;;;7.45;4.80;;;;;;;;;;2074330;28;20263;-56
2022/06/20 01:14:34;;;;;;;7.38;4.90;;;;;;;;;;2072661;28;20189;-56
2022/06/20 01:15:35;;;;;;;4.43;4.03;;;;;;;;;;2075140;28;20153;-57
2022/06/20 01:16:36;;;;;;;7.45;5.00;;;;;;;;;;2075214;28;20200;-58
2022/06/20 01:17:38;;;;;;;6.35;4.38;;;;;;;;;;2074528;28;20165;-57
2022/06/20 01:18:40;;;;;;;5.85;4.75;;;;;;;;;;2074870;28;20559;-55
2022/06/20 01:19:49;;;;;;;8.60;5.47;;;;;;;;;;2074555;28;20308;-60
2022/06/20 01:20:50;;;;;;;5.10;4.43;;;;;;;;;;2071075;28;20193;-51
2022/06/20 01:21:50;;;;;;;6.00;5.20;;;;;;;;;;2066430;28;20188;-52
2022/06/20 01:23:02;;;;;;;12.75;5.07;;;;;;;;;;2066145;28;20177;-55
2022/06/20 01:24:19;;;;;;;6.78;5.05;;;;;;;;;;2071482;28;20171;-53
2022/06/20 01:25:43;;;;;;;8.27;5.00;;;;;;;;;;2072238;28;20187;-56
2022/06/20 01:27:02;;;;;;;7.55;4.97;;;;;;;;;;2055796;28;20193;-51
2022/06/20 01:28:05;;;;;;;7.00;5.00;;;;;;;;;;2067086;28;20161;-54
2022/06/20 01:29:08;;;;;;;6.03;5.43;;;;;;;;;;2066682;28;20591;-56
2022/06/20 01:30:08;;;;;;;6.57;5.72;;;;;;;;;;2067294;28;20177;-54
2022/06/20 01:31:09;;;;;;;7.53;4.88;;;;;;;;;;2072391;28;20662;-56
2022/06/20 01:32:10;;;;;;;8.13;5.55;;;;;;;;;;2074628;28;20251;-53
2022/06/20 01:33:11;;;;;;;6.55;4.95;;;;;;;;;;2076683;28;20164;-55
2022/06/20 01:34:14;;;;;;;7.28;5.50;;;;;;;;;;2075123;28;20274;-51
2022/06/20 01:37:23;;;;;;;8.73;5.45;;;;;;;;;;2077958;28;20189;-52
2022/06/20 01:37:57;;;;;;;5.78;5.28;;;;;;;;;;2072890;28;20178;-54
2022/06/20 01:38:59;;;;;;;9.07;5.60;;;;;;;;;;2079534;28;20165;-57
2022/06/20 01:40:01;;;;;;;9.73;5.85;;;;;;;;;;2079338;28;20195;-58
2022/06/20 01:42:23;;;;;;;7.18;6.40;;;;;;;;;;2081945;28;20185;-58
2022/06/20 01:43:23;;;;;;;6.28;5.68;;;;;;;;;;2079611;28;20177;-58
2022/06/20 01:44:24;;;;;;;9.68;6.47;;;;;;;;;;2079621;28;20196;-57
2022/06/20 01:46:44;;;;;;;8.85;6.13;;;;;;;;;;2080668;28;20244;-56
2022/06/20 01:47:44;;;;;;;7.78;6.45;;;;;;;;;;2079998;28;20653;-54
2022/06/20 01:48:46;;;;;;;9.20;6.18;;;;;;;;;;2073775;28;20183;-56
2022/06/20 01:49:48;;;;;;;6.57;5.97;;;;;;;;;;2072889;28;20177;-56
2022/06/20 01:50:49;;;;;;;9.95;6.50;;;;;;;;;;2078519;28;20255;-52
2022/06/20 01:51:58;;;;;;;8.35;7.10;;;;;;;;;;2078550;28;20684;-50
2022/06/20 01:53:01;;;;;;;8.48;6.53;;;;;;;;;;2080372;28;20192;-55
2022/06/20 01:54:01;;;;;;;8.38;6.20;;;;;;;;;;2079871;28;20192;-54
2022/06/20 01:55:17;;;;;;;7.40;6.40;;;;;;;;;;2082031;28;20185;-56
2022/06/20 01:56:18;;;;;;;9.48;6.30;;;;;;;;;;2080422;28;20152;-55
2022/06/20 01:57:20;;;;;;;8.20;6.10;;;;;;;;;;2080431;28;20255;-55
2022/06/20 01:58:22;;;;;;;12.07;6.88;;;;;;;;;;2079249;28;20177;-57
2022/06/20 01:59:55;;;;;;;8.63;6.55;;;;;;;;;;2077281;28;20173;-56
2022/06/20 02:00:55;;;;;;;13.30;5.93;;;;;;;;;;2067234;28;20178;-52
2022/06/20 02:01:56;;;;;;;7.35;5.93;;;;;;;;;;2069214;28;20554;-52
2022/06/20 02:02:59;;;;;;;8.18;6.03;;;;;;;;;;2075090;28;20216;-54
2022/06/20 02:04:01;;;;;;;7.50;6.38;;;;;;;;;;2075131;28;20180;-52
2022/06/20 02:05:04;;;;;;;10.32;6.03;;;;;;;;;;2075880;28;20204;-54
2022/06/20 02:06:07;;;;;;;10.68;6.07;;;;;;;;;;2076348;28;20177;-56
2022/06/20 02:07:08;;;;;;;8.70;6.60;;;;;;;;;;2076789;28;20164;-55
2022/06/20 02:08:08;;;;;;;6.85;6.00;;;;;;;;;;2075944;28;20181;-50
2022/06/20 02:09:11;;;;;;;8.38;5.43;;;;;;;;;;2076088;28;20172;-59
2022/06/20 02:10:13;;;;;;;7.05;5.35;;;;;;;;;;2075781;28;20154;-55
2022/06/20 02:11:20;;;;;;;7.03;5.60;;;;;;;;;;2076390;28;20653;-52
2022/06/20 02:12:20;;;;;;;8.93;5.72;;;;;;;;;;2076221;28;20263;-54
2022/06/20 02:13:22;;;;;;;9.88;6.40;;;;;;;;;;2076397;28;20540;-54
2022/06/20 02:14:30;;;;;;;6.97;6.15;;;;;;;;;;2075017;28;20184;-53
2022/06/20 02:15:31;;;;;;;8.77;5.80;;;;;;;;;;2077326;28;20185;-55
2022/06/20 02:16:33;;;;;;;6.35;4.82;;;;;;;;;;2078010;28;20196;-57
2022/06/20 02:17:39;;;;;;;7.35;5.40;;;;;;;;;;2070249;28;20307;-54
2022/06/20 02:18:40;;;;;;;7.30;5.32;;;;;;;;;;2070245;28;20197;-53
2022/06/20 02:19:45;;;;;;;8.70;5.50;;;;;;;;;;2070101;28;20603;-56
2022/06/20 02:20:47;;;;;;;8.40;5.25;;;;;;;;;;2073988;28;20185;-57
2022/06/20 02:21:47;;;;;;;6.50;5.35;;;;;;;;;;2076523;28;20181;-55
2022/06/20 02:22:49;;;;;;;5.88;5.28;;;;;;;;;;2077340;28;20180;-54
2022/06/20 02:23:54;;;;;;;9.52;4.97;;;;;;;;;;2076873;28;20197;-54
2022/06/20 02:24:58;;;;;;;5.57;4.93;;;;;;;;;;2075895;28;20234;-53
2022/06/20 02:25:59;;;;;;;7.25;5.43;;;;;;;;;;2076338;28;20177;-56
2022/06/20 02:27:02;;;;;;;7.93;5.68;;;;;;;;;;2074783;28;20165;-54
2022/06/20 02:28:07;;;;;;;10.13;5.47;;;;;;;;;;2073921;28;20673;-49
2022/06/20 02:29:22;;;;;;;5.55;5.03;;;;;;;;;;2073244;28;20169;-53
2022/06/20 02:30:22;;;;;;;8.32;5.43;;;;;;;;;;2073246;28;20157;-52
2022/06/20 02:31:23;;;;;;;5.50;4.97;;;;;;;;;;2073564;28;20252;-51
2022/06/20 02:32:26;;;;;;;7.63;5.38;;;;;;;;;;2073643;28;20527;-51
2022/06/20 02:33:28;;;;;;;8.93;4.63;;;;;;;;;;2073733;28;20173;-52
2022/06/20 02:34:29;;;;;;;8.93;5.05;;;;;;;;;;2072791;28;20574;-57
2022/06/20 02:35:31;;;;;;;6.45;4.68;;;;;;;;;;2073984;28;20184;-51
2022/06/20 02:36:31;;;;;;;6.95;3.83;;;;;;;;;;2073244;28;20176;-53
2022/06/20 02:37:34;;;;;;;7.32;3.55;;;;;;;;;;2073784;28;20259;-52
2022/06/20 02:38:35;;;;;;;8.75;3.38;;;;;;;;;;2073226;28;20752;-50
2022/06/20 02:39:38;;;;;;;4.07;2.90;;;;;;;;;;2073225;28;20231;-53
2022/06/20 02:40:41;;;;;;;4.35;2.92;;;;;;;;;;2073016;28;20177;-54
2022/06/20 02:41:42;;;;;;;4.28;2.72;;;;;;;;;;2073339;28;20199;-51
2022/06/20 02:42:45;;;;;;;6.95;2.97;;;;;;;;;;2073880;28;20192;-50
2022/06/20 02:43:55;;;;;;;6.88;3.20;;;;;;;;;;2074093;28;20591;-53
2022/06/20 02:44:56;;;;;;;8.23;3.88;;;;;;;;;;2073435;28;20643;-55
2022/06/20 02:45:58;;;;;;;4.95;3.78;;;;;;;;;;2073580;28;20196;-49
2022/06/20 02:47:01;;;;;;;7.53;4.13;;;;;;;;;;2073655;28;20280;-53
2022/06/20 02:48:07;;;;;;;6.53;4.63;;;;;;;;;;2074111;28;20183;-53
2022/06/20 02:49:09;;;;;;;7.82;4.63;;;;;;;;;;2074071;28;20711;-52
2022/06/20 02:50:11;;;;;;;5.65;4.47;;;;;;;;;;2073997;28;20204;-54
2022/06/20 02:51:13;;;;;;;7.55;5.30;;;;;;;;;;2072765;28;20188;-54
2022/06/20 02:52:17;;;;;;;7.82;4.80;;;;;;;;;;2073305;28;20157;-56
2022/06/20 02:53:21;;;;;;;7.53;5.35;;;;;;;;;;2073723;28;20169;-51
2022/06/20 02:54:23;;;;;;;7.28;5.00;;;;;;;;;;2072677;28;20564;-52
2022/06/20 02:55:24;;;;;;;8.05;4.85;;;;;;;;;;2073539;28;20177;-56
2022/06/20 02:56:27;;;;;;;8.13;5.60;;;;;;;;;;2072923;28;20676;-56
2022/06/20 02:57:33;;;;;;;7.28;4.07;;;;;;;;;;2065049;28;20216;-52
2022/06/20 02:58:34;;;;;;;6.28;4.47;;;;;;;;;;2072057;28;20184;-51
2022/06/20 02:59:40;;;;;;;7.30;5.47;;;;;;;;;;2073330;28;20201;-53
2022/06/20 03:00:45;;;;;;;8.93;5.82;;;;;;;;;;2072627;28;20707;-57
2022/06/20 03:02:01;;;;;;;9.10;5.53;;;;;;;;;;2072940;28;20211;-52
2022/06/20 03:03:05;;;;;;;8.70;5.55;;;;;;;;;;2073549;28;20287;-55
2022/06/20 03:04:07;;;;;;;8.80;6.10;;;;;;;;;;2072645;28;20201;-57
2022/06/20 03:05:08;;;;;;;8.23;6.00;;;;;;;;;;2073657;28;20208;-53
2022/06/20 03:06:10;;;;;;;7.13;6.40;;;;;;;;;;2072623;28;20219;-53
2022/06/20 03:07:14;;;;;;;7.72;5.15;;;;;;;;;;2073657;28;20207;-52
2022/06/20 03:08:15;;;;;;;7.20;5.95;;;;;;;;;;2073394;28;20188;-53
2022/06/20 03:09:17;;;;;;;7.90;5.75;;;;;;;;;;2073691;28;20172;-57
2022/06/20 03:10:17;;;;;;;7.03;5.60;;;;;;;;;;2073507;28;20173;-54
2022/06/20 03:11:18;;;;;;;6.10;5.30;;;;;;;;;;2073764;28;20172;-51
2022/06/20 03:12:18;;;;;;;7.43;5.20;;;;;;;;;;2073489;28;20543;-50
2022/06/20 03:13:19;;;;;;;5.93;5.30;;;;;;;;;;2073389;28;20203;-55
2022/06/20 03:14:23;;;;;;;6.00;5.50;;;;;;;;;;2072633;28;20211;-56
2022/06/20 03:15:24;;;;;;;7.38;5.20;;;;;;;;;;2073685;28;20557;-51
2022/06/20 03:16:25;;;;;;;11.73;5.63;;;;;;;;;;2073017;28;20247;-54
2022/06/20 03:17:26;;;;;;;5.60;5.03;;;;;;;;;;2072930;28;20179;-52
2022/06/20 03:18:26;;;;;;;7.88;5.05;;;;;;;;;;2072589;28;20177;-51
2022/06/20 03:19:31;;;;;;;5.75;5.10;;;;;;;;;;2072890;28;20522;-54
2022/06/20 03:20:32;;;;;;;7.18;5.15;;;;;;;;;;2073428;28;20185;-53
2022/06/20 03:21:35;;;;;;;4.85;4.40;;;;;;;;;;2073668;28;20661;-53
2022/06/20 03:22:37;;;;;;;5.50;4.93;;;;;;;;;;2072915;28;20223;-56
2022/06/20 03:23:37;;;;;;;7.47;4.85;;;;;;;;;;2074344;28;20173;-53
2022/06/20 03:24:38;;;;;;;7.63;4.90;;;;;;;;;;2073798;28;20721;-54
2022/06/20 03:25:40;;;;;;;7.00;5.28;;;;;;;;;;2074811;28;20303;-54
2022/06/20 03:26:40;;;;;;;9.00;5.32;;;;;;;;;;2075063;28;20522;-50
2022/06/20 03:27:42;;;;;;;6.38;5.05;;;;;;;;;;2075230;28;20200;-50
2022/06/20 03:28:42;;;;;;;6.03;4.82;;;;;;;;;;2074628;28;20181;-52
2022/06/20 03:29:44;;;;;;;6.20;5.57;;;;;;;;;;2075576;28;20248;-56
2022/06/20 03:30:45;;;;;;;6.05;5.25;;;;;;;;;;2075940;28;20212;-56
2022/06/20 03:31:45;;;;;;;5.80;4.68;;;;;;;;;;2075045;28;20165;-53
2022/06/20 03:32:46;;;;;;;7.78;5.75;;;;;;;;;;2075483;28;20169;-57
2022/06/20 03:33:46;;;;;;;6.93;5.60;;;;;;;;;;2075949;28;20169;-53
2022/06/20 03:34:47;;;;;;;5.78;5.18;;;;;;;;;;2074808;28;20206;-54
2022/06/20 03:35:53;;;;;;;6.55;5.15;;;;;;;;;;2075564;28;20172;-53
2022/06/20 03:36:53;;;;;;;7.28;5.05;;;;;;;;;;2075999;28;20557;-57
2022/06/20 03:37:53;;;;;;;9.00;5.65;;;;;;;;;;2074566;28;20181;-57
2022/06/20 03:38:54;;;;;;;9.05;5.35;;;;;;;;;;2074698;28;20179;-55
2022/06/20 03:39:55;;;;;;;8.10;5.82;;;;;;;;;;2074565;28;20173;-54
2022/06/20 03:40:55;;;;;;;6.38;4.80;;;;;;;;;;2074523;28;20220;-53
2022/06/20 03:41:55;;;;;;;11.80;5.95;;;;;;;;;;2073904;28;20243;-54
2022/06/20 03:42:57;;;;;;;9.27;6.25;;;;;;;;;;2079005;28;20184;-57
2022/06/20 03:44:00;;;;;;;5.90;5.07;;;;;;;;;;2073231;28;20672;-54
2022/06/20 03:45:03;;;;;;;8.60;5.80;;;;;;;;;;2073689;28;20181;-51
2022/06/20 03:46:07;;;;;;;6.63;5.20;;;;;;;;;;2073981;28;20621;-54
2022/06/20 03:47:09;;;;;;;7.65;6.35;;;;;;;;;;2074209;28;20284;-58
2022/06/20 03:48:15;;;;;;;8.18;5.55;;;;;;;;;;2073650;28;20263;-55
2022/06/20 03:49:22;;;;;;;5.72;5.22;;;;;;;;;;2074413;28;20215;-54
2022/06/20 03:50:29;;;;;;;6.55;5.47;;;;;;;;;;2075165;28;20173;-52
2022/06/20 03:51:33;;;;;;;8.95;6.57;;;;;;;;;;2075721;28;20531;-53
2022/06/20 03:52:36;;;;;;;7.60;5.78;;;;;;;;;;2076128;28;20173;-57
2022/06/20 03:53:41;;;;;;;9.90;6.35;;;;;;;;;;2075391;28;20184;-52
2022/06/20 03:54:45;;;;;;;6.20;5.60;;;;;;;;;;2075133;28;20276;-55
2022/06/20 03:55:50;;;;;;;7.53;6.07;;;;;;;;;;2075629;28;20255;-55
2022/06/20 03:56:56;;;;;;;7.93;6.22;;;;;;;;;;2067211;28;20180;-55
2022/06/20 03:58:04;;;;;;;6.18;5.60;;;;;;;;;;2074746;28;20173;-54
2022/06/20 03:59:13;;;;;;;6.82;5.97;;;;;;;;;;2075948;28;20272;-56
2022/06/20 04:00:15;;;;;;;9.13;6.43;;;;;;;;;;2074995;28;20153;-53
2022/06/20 04:01:20;;;;;;;11.10;6.97;;;;;;;;;;2073914;28;20243;-53
2022/06/20 04:02:29;;;;;;;9.73;6.50;;;;;;;;;;2073546;28;20220;-52
2022/06/20 04:03:41;;;;;;;7.53;6.55;;;;;;;;;;2073194;28;20188;-57
2022/06/20 04:04:50;;;;;;;10.18;6.85;;;;;;;;;;2072237;28;20703;-50
2022/06/20 04:05:58;;;;;;;8.02;6.57;;;;;;;;;;2073669;28;20172;-56
2022/06/20 04:07:01;;;;;;;8.20;6.95;;;;;;;;;;2073270;28;20177;-56
2022/06/20 04:08:06;;;;;;;10.15;7.75;;;;;;;;;;2073023;28;20165;-52
2022/06/20 04:12:01;;;;;;;6.65;5.85;;;;;;;;;;2073312;28;20252;-56
2022/06/20 04:13:06;;;;;;;12.55;7.68;;;;;;;;;;2074553;28;20541;-54
2022/06/20 04:14:14;;;;;;;7.28;6.57;;;;;;;;;;2074007;28;20176;-55
2022/06/20 04:15:19;;;;;;;11.43;6.53;;;;;;;;;;2075079;28;20176;-53
2022/06/20 04:16:29;;;;;;;7.93;7.00;;;;;;;;;;2074998;28;20168;-53
2022/06/20 04:19:06;;;;;;;8.48;7.10;;;;;;;;;;2066765;28;20173;-54
2022/06/20 04:20:13;;;;;;;10.25;7.45;;;;;;;;;;2068453;28;20177;-54
2022/06/20 04:21:17;;;;;;;8.63;7.80;;;;;;;;;;2074762;28;20169;-52
2022/06/20 04:22:19;;;;;;;8.27;7.57;;;;;;;;;;2075085;28;20181;-52
2022/06/20 04:23:27;;;;;;;8.63;7.55;;;;;;;;;;2074890;28;20208;-51
2022/06/20 04:24:31;;;;;;;11.18;8.27;;;;;;;;;;2074023;28;20658;-52
2022/06/20 04:25:37;;;;;;;10.52;8.48;;;;;;;;;;2074427;28;20276;-58
2022/06/20 04:26:38;;;;;;;9.65;7.93;;;;;;;;;;2077299;28;20168;-56
2022/06/20 04:27:53;;;;;;;12.32;7.80;;;;;;;;;;2074664;28;20187;-52
2022/06/20 04:29:12;;;;;;;11.65;8.32;;;;;;;;;;2074673;28;20575;-55
2022/06/20 04:30:35;;;;;;;9.45;8.57;;;;;;;;;;2074305;28;20630;-52
2022/06/20 04:31:43;;;;;;;9.60;8.63;;;;;;;;;;2066441;28;20672;-54
2022/06/20 04:32:56;;;;;;;9.75;8.60;;;;;;;;;;2075216;28;20176;-53
2022/06/20 04:34:03;;;;;;;9.15;8.32;;;;;;;;;;2072713;28;20173;-54
2022/06/20 04:35:07;;;;;;;10.95;8.48;;;;;;;;;;2066339;28;20166;-55
2022/06/20 04:36:07;;;;;;;9.10;7.85;;;;;;;;;;2072168;28;20282;-51
2022/06/20 04:37:23;;;;;;;10.43;9.02;;;;;;;;;;2074850;28;20227;-56
2022/06/20 04:38:26;;;;;;;11.57;9.10;;;;;;;;;;2074602;28;20177;-53
2022/06/20 04:39:30;;;;;;;9.73;8.75;;;;;;;;;;2074224;28;20172;-52
2022/06/20 04:40:34;;;;;;;12.80;8.68;;;;;;;;;;2074331;28;20264;-52
2022/06/20 04:41:37;;;;;;;9.45;8.38;;;;;;;;;;2077909;28;20658;-50
2022/06/20 04:42:43;;;;;;;13.27;9.27;;;;;;;;;;2078979;28;20169;-53
2022/06/20 04:43:50;;;;;;;9.45;8.48;;;;;;;;;;2073986;28;20168;-50
2022/06/20 04:44:53;;;;;;;8.93;8.02;;;;;;;;;;2073264;28;20168;-54
2022/06/20 04:45:56;;;;;;;11.93;8.63;;;;;;;;;;2067170;28;20679;-53
2022/06/20 04:47:15;;;;;;;14.48;9.32;;;;;;;;;;2067898;28;20268;-54
2022/06/20 04:48:17;;;;;;;12.18;8.93;;;;;;;;;;2065987;28;20710;-51
2022/06/20 04:49:18;;;;;;;9.68;8.68;;;;;;;;;;2066910;28;20162;-53
2022/06/20 04:50:30;;;;;;;9.00;8.18;;;;;;;;;;2075101;28;20177;-50
2022/06/20 04:51:33;;;;;;;12.63;8.15;;;;;;;;;;2072373;28;20552;-54
2022/06/20 04:52:34;;;;;;;10.18;8.57;;;;;;;;;;2076148;28;20304;-55
2022/06/20 04:53:39;;;;;;;11.85;8.32;;;;;;;;;;2076930;28;20569;-53
2022/06/20 04:54:39;;;;;;;12.60;8.88;;;;;;;;;;2073709;28;20197;-54
2022/06/20 04:55:47;;;;;;;11.60;9.57;;;;;;;;;;2074316;28;20228;-52
2022/06/20 04:56:50;;;;;;;17.20;10.05;;;;;;;;;;2079381;28;20215;-53
2022/06/20 04:57:51;;;;;;;15.32;9.93;;;;;;;;;;2075407;28;20172;-55
2022/06/20 04:58:53;;;;;;;13.88;9.60;;;;;;;;;;2075401;28;20177;-60
2022/06/20 04:59:58;;;;;;;12.68;8.45;;;;;;;;;;2074314;28;20169;-55
2022/06/20 05:00:59;;;;;;;8.73;7.82;;;;;;;;;;2066112;28;20267;-53
2022/06/20 05:02:03;;;;;;;14.57;8.63;;;;;;;;;;2074024;28;20185;-55
2022/06/20 05:03:04;;;;;;;12.50;8.85;;;;;;;;;;2074493;28;20165;-57
2022/06/20 05:04:10;;;;;;;10.23;8.52;;;;;;;;;;2073922;28;20260;-52
2022/06/20 05:05:18;;;;;;;13.27;8.95;;;;;;;;;;2065950;28;20264;-53
2022/06/20 05:06:37;;;;;;;10.10;8.05;;;;;;;;;;2066749;28;20173;-55
2022/06/20 05:07:38;;;;;;;8.60;7.57;;;;;;;;;;2074100;28;20705;-57
2022/06/20 05:08:41;;;;;;;10.57;8.35;;;;;;;;;;2074725;28;20169;-52
2022/06/20 05:10:16;;;;;;;7.53;6.82;;;;;;;;;;2074688;28;20212;-49
2022/06/20 05:11:28;;;;;;;12.40;7.90;;;;;;;;;;2049283;29;20186;-54
2022/06/20 05:12:33;;;;;;;11.93;7.15;;;;;;;;;;2049636;29;20672;-53
2022/06/20 05:13:51;;;;;;;9.60;7.18;;;;;;;;;;2057443;28;20185;-54
2022/06/20 05:14:58;;;;;;;9.60;7.20;;;;;;;;;;2066050;28;20169;-52
2022/06/20 05:15:59;;;;;;;12.07;7.40;;;;;;;;;;2067298;28;20176;-50
2022/06/20 05:17:01;;;;;;;9.60;8.35;;;;;;;;;;2074020;28;20184;-54
2022/06/20 05:18:08;;;;;;;12.35;8.77;;;;;;;;;;2074642;28;20886;-52
2022/06/20 05:19:13;;;;;;;13.73;8.20;;;;;;;;;;2074726;28;20164;-51
2022/06/20 05:20:19;;;;;;;11.40;8.00;;;;;;;;;;2074953;28;20529;-50
2022/06/20 05:21:22;;;;;;;13.55;7.80;;;;;;;;;;2074421;28;20168;-54
2022/06/20 05:22:27;;;;;;;11.00;7.70;;;;;;;;;;2074501;28;20180;-56
2022/06/20 05:23:30;;;;;;;11.52;7.72;;;;;;;;;;2074207;28;20557;-49
2022/06/20 05:24:33;;;;;;;11.68;7.18;;;;;;;;;;2073920;28;20231;-54
2022/06/20 05:25:35;;;;;;;7.70;6.47;;;;;;;;;;2074670;28;20203;-54
2022/06/20 05:26:39;;;;;;;8.27;6.60;;;;;;;;;;2074690;28;20642;-55
2022/06/20 05:27:51;;;;;;;9.60;5.93;;;;;;;;;;2073782;28;20177;-54
2022/06/20 05:28:53;;;;;;;6.97;5.65;;;;;;;;;;2066445;28;20176;-55
2022/06/20 05:29:55;;;;;;;8.55;5.63;;;;;;;;;;2073081;28;20601;-53
2022/06/20 05:30:56;;;;;;;8.50;4.88;;;;;;;;;;2074784;28;20260;-55
2022/06/20 05:31:58;;;;;;;8.95;4.78;;;;;;;;;;2074866;28;20533;-53
2022/06/20 05:33:03;;;;;;;9.07;5.00;;;;;;;;;;2079723;28;20179;-57
2022/06/20 05:34:10;;;;;;;9.32;4.43;;;;;;;;;;2074223;28;20242;-54
2022/06/20 05:35:34;;;;;;;8.93;4.80;;;;;;;;;;2074759;28;20161;-55
2022/06/20 05:36:49;;;;;;;8.35;4.10;;;;;;;;;;2066499;28;20612;-54
2022/06/20 05:37:52;;;;;;;6.97;4.25;;;;;;;;;;2073903;28;20180;-55
2022/06/20 05:39:05;;;;;;;7.70;4.60;;;;;;;;;;2073965;28;20212;-52
2022/06/20 05:40:20;;;;;;;8.88;4.80;;;;;;;;;;2073859;28;20158;-53
2022/06/20 05:41:20;;;;;;;7.53;4.40;;;;;;;;;;2074526;28;20173;-55
2022/06/20 05:42:21;;;;;;;9.15;4.28;;;;;;;;;;2076094;28;20165;-53
2022/06/20 05:43:21;;;;;;;7.72;4.03;;;;;;;;;;2082800;28;20226;-51
2022/06/20 05:44:21;;;;;;;8.57;3.95;;;;;;;;;;2081824;28;20802;-53
2022/06/20 05:45:23;;;;;;;10.48;4.50;;;;;;;;;;2082550;28;20258;-56
2022/06/20 05:46:23;;;;;;;7.18;4.10;;;;;;;;;;2074579;28;20217;-57
2022/06/20 05:47:26;;;;;;;6.18;3.80;;;;;;;;;;2066105;28;20165;-50
2022/06/20 05:48:32;;;;;;;7.00;4.20;;;;;;;;;;2073871;28;20538;-57
2022/06/20 05:49:35;;;;;;;6.95;3.60;;;;;;;;;;2075858;28;20169;-58
2022/06/20 05:50:41;;;;;;;10.35;3.83;;;;;;;;;;2073035;28;20251;-55
2022/06/20 05:51:43;;;;;;;10.43;3.80;;;;;;;;;;2075153;28;20173;-55
2022/06/20 05:52:44;;;;;;;7.75;3.92;;;;;;;;;;2075046;28;20172;-50
2022/06/20 05:53:44;;;;;;;6.78;3.83;;;;;;;;;;2074518;28;20222;-55
2022/06/20 05:54:49;;;;;;;5.45;3.60;;;;;;;;;;2073429;28;20270;-51
2022/06/20 05:55:50;;;;;;;10.00;4.03;;;;;;;;;;2074406;28;20169;-54
2022/06/20 05:56:53;;;;;;;8.63;4.00;;;;;;;;;;2074241;28;20181;-55
2022/06/20 05:57:55;;;;;;;5.93;3.95;;;;;;;;;;2074480;28;20176;-56
2022/06/20 05:58:56;;;;;;;6.93;3.67;;;;;;;;;;2074253;28;20220;-53
2022/06/20 05:59:59;;;;;;;5.57;4.35;;;;;;;;;;2074025;28;20271;-53
2022/06/20 06:01:03;;;;;;;6.30;4.30;;;;;;;;;;2074519;28;20180;-56
2022/06/20 06:02:19;;;;;;;8.38;4.07;;;;;;;;;;2074709;28;20177;-54
2022/06/20 06:03:34;;;;;;;5.60;4.10;;;;;;;;;;2074392;28;20244;-56
2022/06/20 06:04:40;;;;;;;12.80;4.60;;;;;;;;;;2073496;28;20227;-53
2022/06/20 06:05:43;;;;;;;10.70;4.30;;;;;;;;;;2073868;28;20200;-50
2022/06/20 06:06:50;;;;;;;12.82;5.03;;;;;;;;;;2073961;28;20169;-55
2022/06/20 06:08:04;;;;;;;6.22;4.35;;;;;;;;;;2075036;28;20169;-53
2022/06/20 06:09:10;;;;;;;6.78;3.90;;;;;;;;;;2072718;28;20178;-53
2022/06/20 06:10:28;;;;;;;9.93;3.50;;;;;;;;;;2074929;28;20204;-50
2022/06/20 06:11:40;;;;;;;8.65;4.70;;;;;;;;;;2074454;28;20182;-55
2022/06/20 06:12:43;;;;;;;10.90;4.15;;;;;;;;;;2074645;28;20165;-57
2022/06/20 06:13:47;;;;;;;8.82;3.83;;;;;;;;;;2074600;28;20362;-51
2022/06/20 06:14:50;;;;;;;6.20;4.45;;;;;;;;;;2074169;28;20624;-51
2022/06/20 06:17:39;;;;;;;6.53;3.50;;;;;;;;;;2068985;28;20197;-53
2022/06/20 06:18:45;;;;;;;5.55;3.95;;;;;;;;;;2074841;28;20226;-55
2022/06/20 06:19:53;;;;;;;8.70;3.65;;;;;;;;;;2075048;28;20681;-54
2022/06/20 06:20:55;;;;;;;10.15;4.30;;;;;;;;;;2074945;28;20169;-53
2022/06/20 06:21:58;;;;;;;8.02;3.88;;;;;;;;;;2074714;28;20204;-54
2022/06/20 06:23:05;;;;;;;7.43;3.50;;;;;;;;;;2073866;28;20196;-57
2022/06/20 06:24:06;;;;;;;9.60;4.78;;;;;;;;;;2073023;28;20248;-55
2022/06/20 06:25:18;;;;;;;11.90;4.32;;;;;;;;;;2074058;28;20177;-57
2022/06/20 06:26:19;;;;;;;9.60;3.63;;;;;;;;;;2074458;28;20173;-56
2022/06/20 06:27:21;;;;;;;4.65;3.50;;;;;;;;;;2074231;28;20169;-55
2022/06/20 06:28:23;;;;;;;9.32;4.00;;;;;;;;;;2074180;28;20244;-53
2022/06/20 06:29:39;;;;;;;6.72;3.70;;;;;;;;;;2074210;28;20164;-54
2022/06/20 06:30:49;;;;;;;8.73;3.92;;;;;;;;;;2074491;28;20157;-53
2022/06/20 06:31:50;;;;;;;4.55;3.38;;;;;;;;;;2074768;28;20165;-57
2022/06/20 06:32:59;;;;;;;9.57;3.67;;;;;;;;;;2077337;28;20203;-52
2022/06/20 06:34:03;;;;;;;6.85;3.88;;;;;;;;;;2082532;28;20152;-53
2022/06/20 06:35:13;;;;;;;6.35;3.78;;;;;;;;;;2096323;23;20231;-58